createdAt,value
2018-09-29T00:00:10.290Z,0
2018-09-29T00:03:10.795Z,0
2018-09-29T00:06:10.013Z,0
2018-09-29T00:09:10.333Z,0
2018-09-29T00:12:10.586Z,0
2018-09-29T00:15:10.800Z,0
2018-09-29T00:18:10.138Z,0
2018-09-29T00:21:10.412Z,0
2018-09-29T00:24:10.748Z,0
2018-09-29T00:27:11.017Z,0
2018-09-29T00:30:10.265Z,0
2018-09-29T00:33:10.580Z,0
2018-09-29T00:36:10.802Z,0
2018-09-29T00:39:09.946Z,0
2018-09-29T00:42:10.248Z,0
2018-09-29T00:45:10.430Z,0
2018-09-29T00:48:10.660Z,0
2018-09-29T00:51:10.966Z,0
2018-09-29T00:54:10.200Z,0
2018-09-29T00:57:10.283Z,0
2018-09-29T01:00:10.406Z,0
2018-09-29T01:03:10.740Z,0
2018-09-29T01:06:11.121Z,0
2018-09-29T01:09:10.262Z,0
2018-09-29T01:12:10.561Z,0
2018-09-29T01:15:10.799Z,0
2018-09-29T01:18:10.157Z,0
2018-09-29T01:21:10.376Z,0
2018-09-29T01:24:10.584Z,0
2018-09-29T01:27:10.835Z,0
2018-09-29T01:30:09.979Z,0
2018-09-29T01:33:10.352Z,0
2018-09-29T01:36:10.664Z,0
2018-09-29T01:39:11.034Z,0
2018-09-29T01:42:10.325Z,0
2018-09-29T01:45:10.520Z,0
2018-09-29T01:48:10.870Z,0
2018-09-29T01:51:10.079Z,0
2018-09-29T01:54:10.375Z,0
2018-09-29T01:57:10.518Z,0
2018-09-29T02:00:10.777Z,0
2018-09-29T02:03:10.952Z,0
2018-09-29T02:06:10.100Z,0
2018-09-29T02:09:10.266Z,0
2018-09-29T02:12:10.531Z,0
2018-09-29T02:15:10.792Z,0
2018-09-29T02:18:10.146Z,0
2018-09-29T02:21:10.333Z,0
2018-09-29T02:24:10.556Z,0
2018-09-29T02:27:10.633Z,0
2018-09-29T02:30:10.867Z,0
2018-09-29T02:33:10.177Z,0
2018-09-29T02:36:10.475Z,0
2018-09-29T02:39:10.867Z,0
2018-09-29T02:42:10.064Z,0
2018-09-29T02:45:10.450Z,0
2018-09-29T02:48:10.849Z,0
2018-09-29T02:51:10.108Z,0
2018-09-29T02:54:11.304Z,0
2018-09-29T02:57:10.616Z,0
2018-09-29T03:00:10.860Z,0
2018-09-29T03:03:10.330Z,0
2018-09-29T03:06:10.468Z,0
2018-09-29T03:09:10.666Z,0
2018-09-29T03:12:11.141Z,0
2018-09-29T03:15:10.286Z,0
2018-09-29T03:18:10.778Z,0
2018-09-29T03:21:10.072Z,0
2018-09-29T03:24:10.379Z,0
2018-09-29T03:27:10.636Z,0
2018-09-29T03:30:10.863Z,0
2018-09-29T03:33:10.128Z,0
2018-09-29T03:36:10.575Z,0
2018-09-29T03:39:10.785Z,0
2018-09-29T03:42:10.142Z,0
2018-09-29T03:45:10.425Z,0
2018-09-29T03:48:10.788Z,0
2018-09-29T03:51:10.032Z,0
2018-09-29T03:54:10.314Z,0
2018-09-29T03:57:10.699Z,0
2018-09-29T04:00:11.692Z,0
2018-09-29T04:03:10.900Z,0
2018-09-29T04:06:10.313Z,0
2018-09-29T04:09:10.589Z,0
2018-09-29T04:12:10.995Z,0
2018-09-29T04:15:10.332Z,0
2018-09-29T04:18:10.785Z,0
2018-09-29T04:21:10.023Z,0
2018-09-29T04:24:10.476Z,0
2018-09-29T04:27:09.893Z,0
2018-09-29T04:30:10.224Z,0
2018-09-29T04:33:10.590Z,0
2018-09-29T04:36:12.636Z,0
2018-09-29T04:39:10.907Z,0
2018-09-29T04:42:10.268Z,0
2018-09-29T04:45:10.504Z,0
2018-09-29T04:48:10.814Z,0
2018-09-29T04:51:10.229Z,0
2018-09-29T04:54:10.650Z,1
2018-09-29T04:57:10.947Z,2
2018-09-29T05:00:10.751Z,3
2018-09-29T05:03:11.513Z,6
2018-09-29T05:06:11.006Z,12
2018-09-29T05:09:10.384Z,21
2018-09-29T05:12:11.071Z,38
2018-09-29T05:15:10.403Z,62
2018-09-29T05:18:10.835Z,97
2018-09-29T05:21:10.409Z,120
2018-09-29T05:24:10.798Z,138
2018-09-29T05:27:10.187Z,177
2018-09-29T05:30:10.423Z,242
2018-09-29T05:33:10.699Z,338
2018-09-29T05:36:10.929Z,440
2018-09-29T05:39:10.434Z,543
2018-09-29T05:42:10.756Z,647
2018-09-29T05:45:11.009Z,753
2018-09-29T05:48:10.389Z,874
2018-09-29T05:51:10.855Z,1011
2018-09-29T05:54:10.269Z,1181
2018-09-29T05:57:10.549Z,1361
2018-09-29T06:00:10.940Z,1558
2018-09-29T06:03:10.632Z,1780
2018-09-29T06:06:11.000Z,1999
2018-09-29T06:09:10.516Z,2167
2018-09-29T06:12:10.830Z,2272
2018-09-29T06:15:10.227Z,2160
2018-09-29T06:18:10.511Z,2210
2018-09-29T06:21:10.879Z,2810
2018-09-29T06:24:10.271Z,3242
2018-09-29T06:27:10.813Z,2782
2018-09-29T06:30:10.323Z,2638
2018-09-29T06:33:10.782Z,2815
2018-09-29T06:36:10.232Z,2953
2018-09-29T06:39:10.486Z,3225
2018-09-29T06:42:10.919Z,3249
2018-09-29T06:45:10.368Z,3153
2018-09-29T06:48:12.868Z,3288
2018-09-29T06:51:10.274Z,3308
2018-09-29T06:54:10.638Z,3449
2018-09-29T06:57:11.026Z,3488
2018-09-29T07:00:10.323Z,3657
2018-09-29T07:03:10.909Z,3832
2018-09-29T07:06:10.434Z,5035
2018-09-29T07:09:10.649Z,10099
2018-09-29T07:12:11.033Z,8711
2018-09-29T07:15:10.497Z,5203
2018-09-29T07:18:10.976Z,5067
2018-09-29T07:21:10.290Z,5378
2018-09-29T07:24:10.693Z,5552
2018-09-29T07:27:11.181Z,5836
2018-09-29T07:30:10.555Z,5877
2018-09-29T07:33:10.997Z,8118
2018-09-29T07:36:10.247Z,6998
2018-09-29T07:39:10.560Z,6570
2018-09-29T07:42:10.871Z,6814
2018-09-29T07:45:10.248Z,7095
2018-09-29T07:48:10.585Z,7409
2018-09-29T07:51:11.043Z,9095
2018-09-29T07:54:10.414Z,9307
2018-09-29T07:57:10.932Z,10213
2018-09-29T08:00:10.279Z,15452
2018-09-29T08:03:10.827Z,54612
2018-09-29T08:06:10.098Z,53809
2018-09-29T08:09:10.549Z,54612
2018-09-29T08:12:11.001Z,54612
2018-09-29T08:15:10.285Z,54612
2018-09-29T08:18:10.794Z,54612
2018-09-29T08:21:10.358Z,54612
2018-09-29T08:24:10.930Z,54612
2018-09-29T08:27:10.376Z,53062
2018-09-29T08:30:10.726Z,47830
2018-09-29T08:33:11.232Z,49282
2018-09-29T08:36:10.628Z,47040
2018-09-29T08:39:11.064Z,54612
2018-09-29T08:42:10.564Z,54612
2018-09-29T08:45:10.961Z,54612
2018-09-29T08:48:10.255Z,54612
2018-09-29T08:51:10.583Z,54612
2018-09-29T08:54:11.066Z,54612
2018-09-29T08:57:10.556Z,54612
2018-09-29T09:00:10.825Z,54612
2018-09-29T09:03:10.142Z,54612
2018-09-29T09:06:10.622Z,54612
2018-09-29T09:09:11.020Z,54612
2018-09-29T09:12:10.563Z,54612
2018-09-29T09:15:11.062Z,54612
2018-09-29T09:18:10.533Z,54612
2018-09-29T09:21:11.071Z,54612
2018-09-29T09:24:10.591Z,54612
2018-09-29T09:27:11.178Z,54612
2018-09-29T09:30:10.764Z,54612
2018-09-29T09:33:10.191Z,54612
2018-09-29T09:36:10.703Z,54612
2018-09-29T09:39:11.262Z,54612
2018-09-29T09:42:10.667Z,54612
2018-09-29T09:45:11.140Z,54612
2018-09-29T09:48:10.702Z,54612
2018-09-29T09:51:11.136Z,54612
2018-09-29T09:54:10.685Z,54612
2018-09-29T09:57:11.087Z,54612
2018-09-29T10:00:10.383Z,54612
2018-09-29T10:03:10.739Z,54612
2018-09-29T10:06:11.246Z,54612
2018-09-29T10:09:10.637Z,54612
2018-09-29T10:12:10.898Z,54612
2018-09-29T10:15:10.274Z,54612
2018-09-29T10:18:10.782Z,54612
2018-09-29T10:21:10.282Z,54612
2018-09-29T10:24:10.634Z,54612
2018-09-29T10:27:11.118Z,54612
2018-09-29T10:30:10.415Z,54612
2018-09-29T10:33:10.807Z,54612
2018-09-29T10:36:10.362Z,13965
2018-09-29T10:39:10.803Z,13008
2018-09-29T10:42:10.152Z,12752
2018-09-29T10:45:11.357Z,12329
2018-09-29T10:48:10.627Z,12094
2018-09-29T10:51:11.082Z,12062
2018-09-29T10:54:10.457Z,16766
2018-09-29T10:57:10.770Z,54612
2018-09-29T11:00:11.121Z,54612
2018-09-29T11:03:10.524Z,54612
2018-09-29T11:06:11.121Z,36045
2018-09-29T11:09:10.624Z,54612
2018-09-29T11:12:10.955Z,54612
2018-09-29T11:15:10.383Z,54612
2018-09-29T11:18:10.834Z,54612
2018-09-29T11:21:10.269Z,54612
2018-09-29T11:24:10.733Z,10878
2018-09-29T11:27:11.402Z,9178
2018-09-29T11:30:10.773Z,8728
2018-09-29T11:33:10.152Z,8031
2018-09-29T11:36:10.517Z,8327
2018-09-29T11:39:10.964Z,9249
2018-09-29T11:42:10.218Z,11308
2018-09-29T11:45:10.537Z,6883
2018-09-29T11:48:11.041Z,6732
2018-09-29T11:51:10.520Z,6789
2018-09-29T11:54:10.904Z,6513
2018-09-29T11:57:10.388Z,6455
2018-09-29T12:00:10.891Z,5851
2018-09-29T12:03:10.425Z,5672
2018-09-29T12:06:10.883Z,5498
2018-09-29T12:09:10.238Z,5401
2018-09-29T12:12:10.624Z,5302
2018-09-29T12:15:11.065Z,4973
2018-09-29T12:18:10.434Z,5056
2018-09-29T12:33:10.703Z,0
2018-09-29T12:48:10.914Z,0
2018-09-29T12:51:10.181Z,500
2018-09-29T12:54:10.837Z,510
2018-09-29T12:57:10.332Z,633
2018-09-29T13:00:10.523Z,3953
2018-09-29T13:03:11.053Z,3923
2018-09-29T13:06:10.276Z,4870
2018-09-29T13:09:10.597Z,4809
2018-09-29T13:12:10.906Z,4795
2018-09-29T13:15:10.306Z,4735
2018-09-29T13:18:10.779Z,4692
2018-09-29T13:21:11.207Z,4610
2018-09-29T13:24:10.571Z,4596
2018-09-29T13:27:10.875Z,4516
2018-09-29T13:30:10.276Z,4462
2018-09-29T13:33:10.722Z,4402
2018-09-29T13:36:11.006Z,4299
2018-09-29T13:39:10.357Z,4286
2018-09-29T13:42:10.843Z,4191
2018-09-29T13:45:10.099Z,4121
2018-09-29T13:48:10.967Z,4030
2018-09-29T13:51:10.287Z,3908
2018-09-29T13:54:10.735Z,3877
2018-09-29T13:57:10.996Z,3818
2018-09-29T14:00:10.457Z,3772
2018-09-29T14:03:10.890Z,3750
2018-09-29T14:06:10.157Z,3732
2018-09-29T14:09:11.143Z,3665
2018-09-29T14:12:10.363Z,3597
2018-09-29T14:15:10.562Z,3563
2018-09-29T14:18:11.086Z,3513
2018-09-29T14:21:10.322Z,3429
2018-09-29T14:24:10.789Z,3388
2018-09-29T14:27:10.296Z,3362
2018-09-29T14:30:10.985Z,3326
2018-09-29T14:33:10.340Z,3240
2018-09-29T14:36:10.861Z,3100
2018-09-29T14:39:10.835Z,3080
2018-09-29T14:42:10.296Z,3042
2018-09-29T14:45:10.825Z,2975
2018-09-29T14:48:10.200Z,2962
2018-09-29T14:51:10.447Z,2890
2018-09-29T14:54:10.766Z,2767
2018-09-29T14:57:11.144Z,2792
2018-09-29T15:00:10.627Z,2742
2018-09-29T15:03:10.911Z,2698
2018-09-29T15:06:10.360Z,2670
2018-09-29T15:09:10.725Z,2635
2018-09-29T15:12:11.071Z,2572
2018-09-29T15:15:10.497Z,2504
2018-09-29T15:18:10.961Z,2450
2018-09-29T15:21:10.311Z,2399
2018-09-29T15:24:10.766Z,2337
2018-09-29T15:27:10.081Z,2288
2018-09-29T15:30:10.426Z,2240
2018-09-29T15:33:10.548Z,2181
2018-09-29T15:36:10.835Z,2131
2018-09-29T15:39:10.380Z,2070
2018-09-29T15:42:10.706Z,2003
2018-09-29T15:45:11.216Z,1940
2018-09-29T15:48:10.541Z,1893
2018-09-29T15:51:11.162Z,1837
2018-09-29T15:54:10.520Z,1763
2018-09-29T15:57:11.026Z,1708
2018-09-29T16:00:10.420Z,1654
2018-09-29T16:03:10.841Z,1608
2018-09-29T16:06:10.101Z,1564
2018-09-29T16:09:10.507Z,1506
2018-09-29T16:12:10.757Z,1448
2018-09-29T16:15:11.144Z,1383
2018-09-29T16:18:10.505Z,1326
2018-09-29T16:21:10.830Z,1272
2018-09-29T16:24:10.270Z,1222
2018-09-29T16:27:10.571Z,1160
2018-09-29T16:30:11.141Z,1067
2018-09-29T16:33:10.830Z,987
2018-09-29T16:36:10.130Z,917
2018-09-29T16:39:10.408Z,858
2018-09-29T16:42:10.841Z,813
2018-09-29T16:45:10.308Z,728
2018-09-29T16:48:10.662Z,648
2018-09-29T16:51:11.067Z,569
2018-09-29T16:54:10.469Z,490
2018-09-29T16:57:10.896Z,417
2018-09-29T17:00:10.180Z,326
2018-09-29T17:03:10.760Z,269
2018-09-29T17:06:11.202Z,218
2018-09-29T17:09:10.604Z,162
2018-09-29T17:12:11.161Z,121
2018-09-29T17:15:10.508Z,86
2018-09-29T17:18:11.077Z,59
2018-09-29T17:21:10.469Z,40
2018-09-29T17:24:10.734Z,26
2018-09-29T17:27:11.049Z,16
2018-09-29T17:30:10.625Z,9
2018-09-29T17:33:11.247Z,5
2018-09-29T17:36:10.501Z,2
2018-09-29T17:39:10.854Z,2
2018-09-29T17:42:10.224Z,1
2018-09-29T17:45:11.044Z,0
2018-09-29T17:48:10.409Z,0
2018-09-29T17:51:10.564Z,0
2018-09-29T17:54:10.955Z,0
2018-09-29T17:57:10.213Z,0
2018-09-29T18:00:10.625Z,0
2018-09-29T18:03:11.110Z,0
2018-09-29T18:06:10.541Z,0
2018-09-29T18:09:10.984Z,0
2018-09-29T18:12:10.353Z,0
2018-09-29T18:15:10.877Z,0
2018-09-29T18:18:10.302Z,0
2018-09-29T18:21:10.693Z,0
2018-09-29T18:24:11.205Z,0
2018-09-29T18:27:10.549Z,0
2018-09-29T18:30:11.220Z,0
2018-09-29T18:33:10.736Z,0
2018-09-29T18:36:11.351Z,0
2018-09-29T18:39:11.054Z,0
2018-09-29T18:42:10.495Z,0
2018-09-29T18:45:10.998Z,0
2018-09-29T18:48:10.486Z,0
2018-09-29T18:51:11.210Z,0
2018-09-29T18:54:10.575Z,0
2018-09-29T18:57:11.028Z,0
2018-09-29T19:00:10.405Z,0
2018-09-29T19:03:10.938Z,0
2018-09-29T19:06:10.256Z,0
2018-09-29T19:09:10.553Z,0
2018-09-29T19:12:11.021Z,0
2018-09-29T19:15:10.348Z,0
2018-09-29T19:18:10.749Z,0
2018-09-29T19:21:11.095Z,0
2018-09-29T19:24:10.441Z,0
2018-09-29T19:27:10.685Z,0
2018-09-29T19:30:11.034Z,0
2018-09-29T19:33:10.411Z,0
2018-09-29T19:36:10.642Z,0
2018-09-29T19:39:11.013Z,0
2018-09-29T19:42:10.250Z,0
2018-09-29T19:45:10.730Z,0
2018-09-29T19:48:11.070Z,0
2018-09-29T19:51:10.444Z,0
2018-09-29T19:54:10.667Z,0
2018-09-29T19:57:11.028Z,0
2018-09-29T20:00:10.288Z,0
2018-09-29T20:03:10.811Z,0
2018-09-29T20:06:10.211Z,0
2018-09-29T20:09:10.609Z,0
2018-09-29T20:12:10.887Z,0
2018-09-29T20:15:10.301Z,0
2018-09-29T20:18:10.645Z,0
2018-09-29T20:21:11.141Z,0
2018-09-29T20:24:10.425Z,0
2018-09-29T20:27:10.684Z,0
2018-09-29T20:30:11.094Z,0
2018-09-29T20:33:10.499Z,0
2018-09-29T20:36:10.730Z,0
2018-09-29T20:39:11.097Z,0
2018-09-29T20:42:10.322Z,0
2018-09-29T20:45:10.665Z,0
2018-09-29T20:48:10.884Z,0
2018-09-29T20:51:10.158Z,0
2018-09-29T20:54:10.523Z,0
2018-09-29T20:57:10.806Z,0
2018-09-29T21:00:10.099Z,0
2018-09-29T21:03:10.387Z,0
2018-09-29T21:06:10.756Z,0
2018-09-29T21:09:11.001Z,0
2018-09-29T21:12:10.284Z,0
2018-09-29T21:15:10.492Z,0
2018-09-29T21:18:10.837Z,0
2018-09-29T21:21:10.172Z,0
2018-09-29T21:24:10.401Z,0
2018-09-29T21:27:10.765Z,0
2018-09-29T21:30:11.082Z,0
2018-09-29T21:33:10.365Z,0
2018-09-29T21:36:10.960Z,0
2018-09-29T21:39:10.259Z,0
2018-09-29T21:42:10.641Z,0
2018-09-29T21:45:10.956Z,0
2018-09-29T21:48:10.179Z,0
2018-09-29T21:51:10.501Z,0
2018-09-29T21:54:10.689Z,0
2018-09-29T21:57:10.951Z,0
2018-09-29T22:00:10.175Z,0
2018-09-29T22:03:10.394Z,0
2018-09-29T22:06:10.590Z,0
2018-09-29T22:09:10.779Z,0
2018-09-29T22:12:10.043Z,0
2018-09-29T22:15:10.312Z,0
2018-09-29T22:18:10.600Z,0
2018-09-29T22:21:11.260Z,0
2018-09-29T22:24:10.587Z,0
2018-09-29T22:27:10.755Z,0
2018-09-29T22:30:10.987Z,0
2018-09-29T22:33:10.150Z,0
2018-09-29T22:36:10.461Z,0
2018-09-29T22:39:10.788Z,0
2018-09-29T22:42:10.133Z,0
2018-09-29T22:45:10.533Z,0
2018-09-29T22:48:10.775Z,0
2018-09-29T22:51:11.030Z,0
2018-09-29T22:54:10.363Z,0
2018-09-29T22:57:10.687Z,0
2018-09-29T23:00:10.989Z,0
2018-09-29T23:03:10.352Z,0
2018-09-29T23:06:10.628Z,0
2018-09-29T23:09:11.058Z,0
2018-09-29T23:12:10.275Z,0
2018-09-29T23:15:10.471Z,0
2018-09-29T23:18:10.731Z,0
2018-09-29T23:21:11.050Z,0
2018-09-29T23:24:10.388Z,0
2018-09-29T23:27:10.515Z,0
2018-09-29T23:30:10.787Z,0
2018-09-29T23:33:10.119Z,0
2018-09-29T23:36:10.419Z,0
2018-09-29T23:39:10.556Z,0
2018-09-29T23:42:10.658Z,0
2018-09-29T23:45:10.825Z,0
2018-09-29T23:48:10.104Z,0
2018-09-29T23:51:10.270Z,0
2018-09-29T23:54:10.622Z,0
2018-09-29T23:57:10.976Z,0
